Cedar Point, Kansas
Current Conditions -  °F | °C
As of 12:35 PM on Saturday 20 Dec 2014 (Local Time) from KEWK Reporting Station
Scattered Clouds Scattered Clouds  
Wind Chill:   Ceiling: Unl
Heat Index:   Visibility: 10mi
Dew Point:   Wind: 16mph
Humidity: 66%   Direction: 210°SSW
Pressure: 30.13"   Gusts: 22mph
Location:  38.26°N, 96.82°W
Report Text: KEWK 201835Z AUTO 21014G19KT 10SM SCT015 08/02 A3013 RMK AO1
Loading
Personal Weather Stations






























Interactive Weather Map New forecast layout! Learn more

10-Day Weather Forecast

Advertisements
Track Severe Weather on mobile